sensor_id;sensor_type;location;lat;lon;timestamp;pressure;altitude;pressure_sealevel;temperature
11926;BMP180;6022;48.768;18.608;2023-05-07T00:01:58;98453.25;;;11.55
11926;BMP180;6022;48.768;18.608;2023-05-07T00:04:27;98453.25;;;11.55
11926;BMP180;6022;48.768;18.608;2023-05-07T00:06:56;98451.59;;;11.54
11926;BMP180;6022;48.768;18.608;2023-05-07T00:09:24;98453.94;;;11.57
11926;BMP180;6022;48.768;18.608;2023-05-07T00:11:52;98457.28;;;11.58
11926;BMP180;6022;48.768;18.608;2023-05-07T00:14:20;98456.91;;;11.51
11926;BMP180;6022;48.768;18.608;2023-05-07T00:16:48;98459.19;;;11.42
11926;BMP180;6022;48.768;18.608;2023-05-07T00:19:17;98457.47;;;11.42
11926;BMP180;6022;48.768;18.608;2023-05-07T00:21:45;98458.28;;;11.43
11926;BMP180;6022;48.768;18.608;2023-05-07T00:24:14;98452.38;;;11.42
11926;BMP180;6022;48.768;18.608;2023-05-07T00:26:42;98452.78;;;11.36
11926;BMP180;6022;48.768;18.608;2023-05-07T00:29:10;98455.41;;;11.23
11926;BMP180;6022;48.768;18.608;2023-05-07T00:31:39;98444.88;;;11.29
11926;BMP180;6022;48.768;18.608;2023-05-07T00:34:08;98449.44;;;11.24
11926;BMP180;6022;48.768;18.608;2023-05-07T00:36:36;98446.78;;;11.25
11926;BMP180;6022;48.768;18.608;2023-05-07T00:39:04;98456.03;;;11.26
11926;BMP180;6022;48.768;18.608;2023-05-07T00:41:35;98448.72;;;11.22
11926;BMP180;6022;48.768;18.608;2023-05-07T00:44:03;98436.72;;;11.11
11926;BMP180;6022;48.768;18.608;2023-05-07T00:46:37;98436.19;;;10.94
11926;BMP180;6022;48.768;18.608;2023-05-07T00:49:05;98430.41;;;10.92
11926;BMP180;6022;48.768;18.608;2023-05-07T00:51:35;98437.09;;;10.93
11926;BMP180;6022;48.768;18.608;2023-05-07T00:54:03;98429.59;;;10.92
11926;BMP180;6022;48.768;18.608;2023-05-07T00:56:32;98438.53;;;10.97
11926;BMP180;6022;48.768;18.608;2023-05-07T00:59:02;98440.16;;;10.98
11926;BMP180;6022;48.768;18.608;2023-05-07T01:01:32;98440.22;;;10.84
11926;BMP180;6022;48.768;18.608;2023-05-07T01:04:01;98434.22;;;10.85
11926;BMP180;6022;48.768;18.608;2023-05-07T01:06:32;98439.13;;;10.88
11926;BMP180;6022;48.768;18.608;2023-05-07T01:09:03;98445.00;;;10.89
11926;BMP180;6022;48.768;18.608;2023-05-07T01:11:32;98455.25;;;10.87
11926;BMP180;6022;48.768;18.608;2023-05-07T01:14:01;98451.09;;;10.86
11926;BMP180;6022;48.768;18.608;2023-05-07T01:16:30;98454.66;;;10.84
11926;BMP180;6022;48.768;18.608;2023-05-07T01:18:58;98454.91;;;10.79
11926;BMP180;6022;48.768;18.608;2023-05-07T01:21:32;98465.06;;;10.79
11926;BMP180;6022;48.768;18.608;2023-05-07T01:24:02;98455.13;;;10.76
11926;BMP180;6022;48.768;18.608;2023-05-07T01:26:30;98453.69;;;10.72
11926;BMP180;6022;48.768;18.608;2023-05-07T01:28:59;98457.53;;;10.65
11926;BMP180;6022;48.768;18.608;2023-05-07T01:31:27;98461.44;;;10.57
11926;BMP180;6022;48.768;18.608;2023-05-07T01:33:58;98451.16;;;10.46
11926;BMP180;6022;48.768;18.608;2023-05-07T01:36:29;98462.31;;;10.44
11926;BMP180;6022;48.768;18.608;2023-05-07T01:38:59;98456.72;;;10.39
11926;BMP180;6022;48.768;18.608;2023-05-07T01:41:27;98461.44;;;10.31
11926;BMP180;6022;48.768;18.608;2023-05-07T01:43:59;98456.75;;;10.25
11926;BMP180;6022;48.768;18.608;2023-05-07T01:46:28;98449.84;;;10.27
11926;BMP180;6022;48.768;18.608;2023-05-07T01:48:56;98460.81;;;10.27
11926;BMP180;6022;48.768;18.608;2023-05-07T01:51:26;98458.38;;;10.26
11926;BMP180;6022;48.768;18.608;2023-05-07T01:53:54;98454.28;;;10.23
11926;BMP180;6022;48.768;18.608;2023-05-07T01:56:25;98455.13;;;10.24
11926;BMP180;6022;48.768;18.608;2023-05-07T01:58:53;98457.75;;;10.22
11926;BMP180;6022;48.768;18.608;2023-05-07T02:01:22;98450.22;;;10.21
11926;BMP180;6022;48.768;18.608;2023-05-07T02:03:50;98454.19;;;10.25
11926;BMP180;6022;48.768;18.608;2023-05-07T02:06:19;98454.13;;;10.26
11926;BMP180;6022;48.768;18.608;2023-05-07T02:08:48;98453.31;;;10.26
11926;BMP180;6022;48.768;18.608;2023-05-07T02:11:17;98453.50;;;10.23
11926;BMP180;6022;48.768;18.608;2023-05-07T02:13:45;98457.47;;;10.27
11926;BMP180;6022;48.768;18.608;2023-05-07T02:16:13;98452.59;;;10.24
11926;BMP180;6022;48.768;18.608;2023-05-07T02:18:42;98445.00;;;10.24
11926;BMP180;6022;48.768;18.608;2023-05-07T02:21:14;98448.63;;;10.20
11926;BMP180;6022;48.768;18.608;2023-05-07T02:23:42;98458.59;;;10.09
11926;BMP180;6022;48.768;18.608;2023-05-07T02:26:13;98453.63;;;10.08
11926;BMP180;6022;48.768;18.608;2023-05-07T02:28:41;98451.25;;;10.05
11926;BMP180;6022;48.768;18.608;2023-05-07T02:31:09;98453.88;;;9.89
11926;BMP180;6022;48.768;18.608;2023-05-07T02:33:37;98452.25;;;9.88
11926;BMP180;6022;48.768;18.608;2023-05-07T02:36:10;98450.44;;;9.90
11926;BMP180;6022;48.768;18.608;2023-05-07T02:38:38;98451.41;;;9.88
11926;BMP180;6022;48.768;18.608;2023-05-07T02:41:07;98449.81;;;9.87
11926;BMP180;6022;48.768;18.608;2023-05-07T02:43:35;98454.97;;;9.85
11926;BMP180;6022;48.768;18.608;2023-05-07T02:46:07;98460.75;;;9.87
11926;BMP180;6022;48.768;18.608;2023-05-07T02:48:35;98462.22;;;9.91
11926;BMP180;6022;48.768;18.608;2023-05-07T02:51:04;98447.19;;;9.88
11926;BMP180;6022;48.768;18.608;2023-05-07T02:53:33;98451.72;;;9.83
11926;BMP180;6022;48.768;18.608;2023-05-07T02:56:02;98454.59;;;9.78
11926;BMP180;6022;48.768;18.608;2023-05-07T02:58:30;98462.22;;;9.78
11926;BMP180;6022;48.768;18.608;2023-05-07T03:00:58;98453.69;;;9.65
11926;BMP180;6022;48.768;18.608;2023-05-07T03:03:27;98452.53;;;9.70
11926;BMP180;6022;48.768;18.608;2023-05-07T03:05:56;98456.44;;;9.76
11926;BMP180;6022;48.768;18.608;2023-05-07T03:08:24;98468.00;;;9.79
11926;BMP180;6022;48.768;18.608;2023-05-07T03:10:53;98468.56;;;9.84
11926;BMP180;6022;48.768;18.608;2023-05-07T03:13:22;98460.84;;;9.86
11926;BMP180;6022;48.768;18.608;2023-05-07T03:15:50;98464.22;;;9.86
11926;BMP180;6022;48.768;18.608;2023-05-07T03:18:19;98467.47;;;9.88
11926;BMP180;6022;48.768;18.608;2023-05-07T03:20:48;98464.53;;;9.80
11926;BMP180;6022;48.768;18.608;2023-05-07T03:23:17;98475.41;;;9.82
11926;BMP180;6022;48.768;18.608;2023-05-07T03:25:46;98469.00;;;9.77
11926;BMP180;6022;48.768;18.608;2023-05-07T03:28:14;98475.50;;;9.81
11926;BMP180;6022;48.768;18.608;2023-05-07T03:30:43;98479.94;;;9.78
11926;BMP180;6022;48.768;18.608;2023-05-07T03:33:12;98478.13;;;9.79
11926;BMP180;6022;48.768;18.608;2023-05-07T03:35:41;98483.00;;;9.82
11926;BMP180;6022;48.768;18.608;2023-05-07T03:38:09;98485.38;;;9.85
11926;BMP180;6022;48.768;18.608;2023-05-07T03:40:37;98478.31;;;9.77
11926;BMP180;6022;48.768;18.608;2023-05-07T03:43:06;98477.94;;;9.82
11926;BMP180;6022;48.768;18.608;2023-05-07T03:45:35;98475.16;;;9.87
11926;BMP180;6022;48.768;18.608;2023-05-07T03:48:05;98484.84;;;9.94
11926;BMP180;6022;48.768;18.608;2023-05-07T03:50:34;98495.16;;;10.05
11926;BMP180;6022;48.768;18.608;2023-05-07T03:53:04;98501.47;;;10.12
11926;BMP180;6022;48.768;18.608;2023-05-07T03:55:32;98499.50;;;10.17
11926;BMP180;6022;48.768;18.608;2023-05-07T03:58:00;98498.44;;;10.07
11926;BMP180;6022;48.768;18.608;2023-05-07T04:00:29;98503.13;;;10.13
11926;BMP180;6022;48.768;18.608;2023-05-07T04:03:03;98497.03;;;10.16
11926;BMP180;6022;48.768;18.608;2023-05-07T04:05:33;98495.31;;;10.16
11926;BMP180;6022;48.768;18.608;2023-05-07T04:08:01;98498.66;;;10.30
11926;BMP180;6022;48.768;18.608;2023-05-07T04:10:31;98502.50;;;10.50
11926;BMP180;6022;48.768;18.608;2023-05-07T04:12:59;98493.03;;;10.65
11926;BMP180;6022;48.768;18.608;2023-05-07T04:15:27;98510.97;;;10.76
11926;BMP180;6022;48.768;18.608;2023-05-07T04:17:54;98508.75;;;10.84
11926;BMP180;6022;48.768;18.608;2023-05-07T04:20:23;98510.97;;;10.89
11926;BMP180;6022;48.768;18.608;2023-05-07T04:23:03;98510.94;;;11.02
11926;BMP180;6022;48.768;18.608;2023-05-07T04:25:35;98520.97;;;11.04
11926;BMP180;6022;48.768;18.608;2023-05-07T04:28:05;98520.56;;;10.97
11926;BMP180;6022;48.768;18.608;2023-05-07T04:30:37;98522.63;;;11.05
11926;BMP180;6022;48.768;18.608;2023-05-07T04:33:08;98515.16;;;11.28
11926;BMP180;6022;48.768;18.608;2023-05-07T04:35:39;98518.59;;;11.53
11926;BMP180;6022;48.768;18.608;2023-05-07T04:38:08;98524.28;;;11.69
11926;BMP180;6022;48.768;18.608;2023-05-07T04:40:44;98527.44;;;11.85
11926;BMP180;6022;48.768;18.608;2023-05-07T04:43:15;98531.88;;;12.18
11926;BMP180;6022;48.768;18.608;2023-05-07T04:45:44;98539.66;;;12.76
11926;BMP180;6022;48.768;18.608;2023-05-07T04:48:13;98535.56;;;12.85
11926;BMP180;6022;48.768;18.608;2023-05-07T04:50:47;98532.81;;;13.57
11926;BMP180;6022;48.768;18.608;2023-05-07T04:53:20;98538.50;;;14.27
11926;BMP180;6022;48.768;18.608;2023-05-07T04:55:58;98535.47;;;14.54
11926;BMP180;6022;48.768;18.608;2023-05-07T04:58:32;98530.41;;;14.85
11926;BMP180;6022;48.768;18.608;2023-05-07T05:01:12;98542.97;;;15.19
11926;BMP180;6022;48.768;18.608;2023-05-07T05:04:11;98541.25;;;16.21
11926;BMP180;6022;48.768;18.608;2023-05-07T05:06:43;98544.13;;;16.85
11926;BMP180;6022;48.768;18.608;2023-05-07T05:09:24;98537.66;;;17.75
11926;BMP180;6022;48.768;18.608;2023-05-07T05:12:16;98533.75;;;17.05
11926;BMP180;6022;48.768;18.608;2023-05-07T05:14:46;98529.59;;;17.33
11926;BMP180;6022;48.768;18.608;2023-05-07T05:17:19;98538.28;;;17.96
11926;BMP180;6022;48.768;18.608;2023-05-07T05:19:52;98536.25;;;18.09
11926;BMP180;6022;48.768;18.608;2023-05-07T05:22:22;98537.75;;;18.64
11926;BMP180;6022;48.768;18.608;2023-05-07T05:24:57;98548.06;;;18.28
11926;BMP180;6022;48.768;18.608;2023-05-07T05:27:29;98545.28;;;18.92
11926;BMP180;6022;48.768;18.608;2023-05-07T05:30:06;98542.88;;;20.03
11926;BMP180;6022;48.768;18.608;2023-05-07T05:32:43;98531.78;;;20.68
11926;BMP180;6022;48.768;18.608;2023-05-07T05:35:14;98530.44;;;21.21
11926;BMP180;6022;48.768;18.608;2023-05-07T05:37:45;98542.91;;;20.44
11926;BMP180;6022;48.768;18.608;2023-05-07T05:40:15;98533.56;;;20.09
11926;BMP180;6022;48.768;18.608;2023-05-07T05:42:48;98539.81;;;19.99
11926;BMP180;6022;48.768;18.608;2023-05-07T05:45:20;98536.94;;;20.68
11926;BMP180;6022;48.768;18.608;2023-05-07T05:47:52;98534.09;;;20.95
11926;BMP180;6022;48.768;18.608;2023-05-07T05:50:26;98531.91;;;21.79
11926;BMP180;6022;48.768;18.608;2023-05-07T05:53:04;98537.69;;;21.97
11926;BMP180;6022;48.768;18.608;2023-05-07T05:55:36;98535.25;;;22.57
11926;BMP180;6022;48.768;18.608;2023-05-07T05:58:13;98533.50;;;23.17
11926;BMP180;6022;48.768;18.608;2023-05-07T06:00:48;98539.09;;;22.69
11926;BMP180;6022;48.768;18.608;2023-05-07T06:03:38;98543.22;;;21.70
11926;BMP180;6022;48.768;18.608;2023-05-07T06:06:09;98532.88;;;21.46
11926;BMP180;6022;48.768;18.608;2023-05-07T06:09:02;98539.59;;;22.26
11926;BMP180;6022;48.768;18.608;2023-05-07T06:11:46;98541.81;;;23.05
11926;BMP180;6022;48.768;18.608;2023-05-07T06:14:18;98536.50;;;23.29
11926;BMP180;6022;48.768;18.608;2023-05-07T06:16:48;98533.75;;;23.00
11926;BMP180;6022;48.768;18.608;2023-05-07T06:19:19;98531.31;;;22.38
11926;BMP180;6022;48.768;18.608;2023-05-07T06:21:50;98539.00;;;21.85
11926;BMP180;6022;48.768;18.608;2023-05-07T06:24:19;98537.72;;;22.80
11926;BMP180;6022;48.768;18.608;2023-05-07T06:26:49;98534.28;;;22.96
11926;BMP180;6022;48.768;18.608;2023-05-07T06:29:19;98533.84;;;23.14
11926;BMP180;6022;48.768;18.608;2023-05-07T06:32:10;98537.50;;;22.98
11926;BMP180;6022;48.768;18.608;2023-05-07T06:40:18;98534.78;;;23.80
11926;BMP180;6022;48.768;18.608;2023-05-07T06:42:50;98539.41;;;23.70
11926;BMP180;6022;48.768;18.608;2023-05-07T06:45:22;98538.22;;;23.36
11926;BMP180;6022;48.768;18.608;2023-05-07T06:47:56;98548.56;;;24.31
11926;BMP180;6022;48.768;18.608;2023-05-07T06:50:50;98545.06;;;23.52
11926;BMP180;6022;48.768;18.608;2023-05-07T06:54:13;98547.09;;;24.43
11926;BMP180;6022;48.768;18.608;2023-05-07T06:56:53;98540.16;;;24.30
11926;BMP180;6022;48.768;18.608;2023-05-07T06:59:21;98528.00;;;25.14
11926;BMP180;6022;48.768;18.608;2023-05-07T07:01:50;98528.56;;;24.61
11926;BMP180;6022;48.768;18.608;2023-05-07T07:04:21;98527.84;;;24.67
11926;BMP180;6022;48.768;18.608;2023-05-07T07:06:53;98520.28;;;24.36
11926;BMP180;6022;48.768;18.608;2023-05-07T07:09:23;98513.53;;;25.47
11926;BMP180;6022;48.768;18.608;2023-05-07T07:11:51;98518.75;;;24.42
11926;BMP180;6022;48.768;18.608;2023-05-07T07:14:20;98508.94;;;23.72
11926;BMP180;6022;48.768;18.608;2023-05-07T07:16:48;98522.44;;;23.46
11926;BMP180;6022;48.768;18.608;2023-05-07T07:19:18;98522.78;;;23.65
11926;BMP180;6022;48.768;18.608;2023-05-07T07:21:53;98514.09;;;23.36
11926;BMP180;6022;48.768;18.608;2023-05-07T07:24:23;98521.41;;;24.05
11926;BMP180;6022;48.768;18.608;2023-05-07T07:26:59;98524.75;;;24.92
11926;BMP180;6022;48.768;18.608;2023-05-07T07:29:31;98512.19;;;24.03
11926;BMP180;6022;48.768;18.608;2023-05-07T07:32:00;98515.50;;;25.04
11926;BMP180;6022;48.768;18.608;2023-05-07T07:34:30;98514.47;;;24.84
11926;BMP180;6022;48.768;18.608;2023-05-07T07:37:09;98516.72;;;23.72
11926;BMP180;6022;48.768;18.608;2023-05-07T07:39:40;98525.47;;;23.71
11926;BMP180;6022;48.768;18.608;2023-05-07T07:42:19;98515.66;;;23.22
11926;BMP180;6022;48.768;18.608;2023-05-07T07:44:49;98526.47;;;24.85
11926;BMP180;6022;48.768;18.608;2023-05-07T07:47:19;98523.81;;;24.07
11926;BMP180;6022;48.768;18.608;2023-05-07T07:49:58;98533.66;;;25.18
11926;BMP180;6022;48.768;18.608;2023-05-07T07:52:28;98534.00;;;24.08
11926;BMP180;6022;48.768;18.608;2023-05-07T07:54:57;98527.88;;;23.51
11926;BMP180;6022;48.768;18.608;2023-05-07T07:57:27;98528.19;;;23.33
11926;BMP180;6022;48.768;18.608;2023-05-07T07:59:56;98526.31;;;24.72
11926;BMP180;6022;48.768;18.608;2023-05-07T08:02:25;98525.06;;;26.13
11926;BMP180;6022;48.768;18.608;2023-05-07T08:04:57;98532.38;;;26.03
11926;BMP180;6022;48.768;18.608;2023-05-07T08:07:37;98529.69;;;25.63
11926;BMP180;6022;48.768;18.608;2023-05-07T08:10:09;98532.53;;;27.15
11926;BMP180;6022;48.768;18.608;2023-05-07T08:12:57;98537.28;;;26.19
11926;BMP180;6022;48.768;18.608;2023-05-07T08:15:33;98535.19;;;26.75
11926;BMP180;6022;48.768;18.608;2023-05-07T08:18:07;98525.38;;;25.77
11926;BMP180;6022;48.768;18.608;2023-05-07T08:20:38;98535.94;;;25.48
11926;BMP180;6022;48.768;18.608;2023-05-07T08:23:22;98538.53;;;25.48
11926;BMP180;6022;48.768;18.608;2023-05-07T08:25:55;98531.84;;;25.39
11926;BMP180;6022;48.768;18.608;2023-05-07T08:28:24;98531.66;;;25.41
11926;BMP180;6022;48.768;18.608;2023-05-07T08:31:01;98536.19;;;24.62
11926;BMP180;6022;48.768;18.608;2023-05-07T08:33:36;98524.31;;;25.44
11926;BMP180;6022;48.768;18.608;2023-05-07T08:36:08;98527.94;;;24.44
11926;BMP180;6022;48.768;18.608;2023-05-07T08:38:38;98536.31;;;23.89
11926;BMP180;6022;48.768;18.608;2023-05-07T08:41:11;98532.72;;;24.27
11926;BMP180;6022;48.768;18.608;2023-05-07T08:43:47;98529.94;;;24.92
11926;BMP180;6022;48.768;18.608;2023-05-07T08:46:22;98535.59;;;23.95
11926;BMP180;6022;48.768;18.608;2023-05-07T08:48:52;98521.22;;;24.64
11926;BMP180;6022;48.768;18.608;2023-05-07T08:51:24;98529.28;;;25.25
11926;BMP180;6022;48.768;18.608;2023-05-07T08:53:56;98533.41;;;24.35
11926;BMP180;6022;48.768;18.608;2023-05-07T08:56:30;98531.06;;;24.26
11926;BMP180;6022;48.768;18.608;2023-05-07T08:59:11;98529.84;;;25.00
11926;BMP180;6022;48.768;18.608;2023-05-07T09:02:12;98529.31;;;24.90
11926;BMP180;6022;48.768;18.608;2023-05-07T09:05:26;98527.88;;;24.38
11926;BMP180;6022;48.768;18.608;2023-05-07T09:08:15;98524.91;;;25.46
11926;BMP180;6022;48.768;18.608;2023-05-07T09:10:56;98528.16;;;24.92
11926;BMP180;6022;48.768;18.608;2023-05-07T09:13:28;98527.03;;;23.36
11926;BMP180;6022;48.768;18.608;2023-05-07T09:16:14;98525.59;;;24.06
11926;BMP180;6022;48.768;18.608;2023-05-07T09:19:27;98521.00;;;24.80
11926;BMP180;6022;48.768;18.608;2023-05-07T09:22:03;98525.19;;;24.46
11926;BMP180;6022;48.768;18.608;2023-05-07T09:24:48;98528.28;;;24.70
11926;BMP180;6022;48.768;18.608;2023-05-07T09:27:22;98523.59;;;24.80
11926;BMP180;6022;48.768;18.608;2023-05-07T09:29:54;98519.53;;;24.71
11926;BMP180;6022;48.768;18.608;2023-05-07T09:32:28;98520.81;;;23.45
11926;BMP180;6022;48.768;18.608;2023-05-07T09:35:00;98517.31;;;22.55
11926;BMP180;6022;48.768;18.608;2023-05-07T09:37:31;98516.63;;;22.31
11926;BMP180;6022;48.768;18.608;2023-05-07T09:40:00;98507.00;;;23.15
11926;BMP180;6022;48.768;18.608;2023-05-07T09:42:29;98515.00;;;23.43
11926;BMP180;6022;48.768;18.608;2023-05-07T09:45:00;98516.31;;;23.83
11926;BMP180;6022;48.768;18.608;2023-05-07T09:47:32;98516.19;;;23.18
11926;BMP180;6022;48.768;18.608;2023-05-07T09:50:08;98518.00;;;22.87
11926;BMP180;6022;48.768;18.608;2023-05-07T09:52:43;98522.69;;;23.14
11926;BMP180;6022;48.768;18.608;2023-05-07T09:55:14;98510.31;;;23.24
11926;BMP180;6022;48.768;18.608;2023-05-07T09:57:45;98511.50;;;23.36
11926;BMP180;6022;48.768;18.608;2023-05-07T10:00:15;98520.97;;;24.02
11926;BMP180;6022;48.768;18.608;2023-05-07T10:02:51;98512.09;;;23.46
11926;BMP180;6022;48.768;18.608;2023-05-07T10:05:31;98516.13;;;23.26
11926;BMP180;6022;48.768;18.608;2023-05-07T10:08:01;98514.22;;;23.42
11926;BMP180;6022;48.768;18.608;2023-05-07T10:10:35;98505.38;;;23.73
11926;BMP180;6022;48.768;18.608;2023-05-07T10:13:06;98503.34;;;23.83
11926;BMP180;6022;48.768;18.608;2023-05-07T10:15:41;98512.09;;;23.46
11926;BMP180;6022;48.768;18.608;2023-05-07T10:18:13;98514.13;;;23.50
11926;BMP180;6022;48.768;18.608;2023-05-07T10:20:47;98507.44;;;23.78
11926;BMP180;6022;48.768;18.608;2023-05-07T10:23:23;98511.50;;;23.58
11926;BMP180;6022;48.768;18.608;2023-05-07T10:25:54;98507.66;;;23.32
11926;BMP180;6022;48.768;18.608;2023-05-07T10:28:31;98512.19;;;23.08
11926;BMP180;6022;48.768;18.608;2023-05-07T10:33:47;98503.16;;;23.70
11926;BMP180;6022;48.768;18.608;2023-05-07T10:36:18;98502.97;;;23.50
11926;BMP180;6022;48.768;18.608;2023-05-07T10:38:47;98493.22;;;23.15
11926;BMP180;6022;48.768;18.608;2023-05-07T10:41:16;98506.69;;;23.33
11926;BMP180;6022;48.768;18.608;2023-05-07T10:43:51;98507.16;;;23.36
11926;BMP180;6022;48.768;18.608;2023-05-07T10:46:22;98500.31;;;23.21
11926;BMP180;6022;48.768;18.608;2023-05-07T10:51:32;98501.59;;;23.61
11926;BMP180;6022;48.768;18.608;2023-05-07T10:56:44;98501.34;;;23.12
11926;BMP180;6022;48.768;18.608;2023-05-07T11:02:01;98496.13;;;23.56
11926;BMP180;6022;48.768;18.608;2023-05-07T11:04:32;98499.69;;;22.97
11926;BMP180;6022;48.768;18.608;2023-05-07T11:09:59;98499.22;;;22.85
11926;BMP180;6022;48.768;18.608;2023-05-07T11:15:10;98499.00;;;23.39
11926;BMP180;6022;48.768;18.608;2023-05-07T11:17:57;98502.03;;;23.28
11926;BMP180;6022;48.768;18.608;2023-05-07T11:20:58;98500.34;;;22.91
11926;BMP180;6022;48.768;18.608;2023-05-07T11:26:08;98510.88;;;22.81
11926;BMP180;6022;48.768;18.608;2023-05-07T11:28:41;98508.22;;;22.67
11926;BMP180;6022;48.768;18.608;2023-05-07T11:31:12;98505.88;;;23.32
11926;BMP180;6022;48.768;18.608;2023-05-07T11:33:40;98505.50;;;22.91
11926;BMP180;6022;48.768;18.608;2023-05-07T11:36:10;98496.50;;;23.31
11926;BMP180;6022;48.768;18.608;2023-05-07T11:38:39;98513.06;;;23.00
11926;BMP180;6022;48.768;18.608;2023-05-07T11:41:09;98505.69;;;22.81
11926;BMP180;6022;48.768;18.608;2023-05-07T11:44:03;98515.63;;;23.00
11926;BMP180;6022;48.768;18.608;2023-05-07T11:46:44;98512.25;;;22.70
11926;BMP180;6022;48.768;18.608;2023-05-07T11:49:17;98511.41;;;23.07
11926;BMP180;6022;48.768;18.608;2023-05-07T11:51:46;98508.03;;;23.43
11926;BMP180;6022;48.768;18.608;2023-05-07T11:54:16;98509.28;;;23.11
11926;BMP180;6022;48.768;18.608;2023-05-07T11:56:44;98518.78;;;23.62
11926;BMP180;6022;48.768;18.608;2023-05-07T11:59:18;98508.50;;;23.24
11926;BMP180;6022;48.768;18.608;2023-05-07T12:01:47;98510.81;;;22.97
11926;BMP180;6022;48.768;18.608;2023-05-07T12:04:19;98504.03;;;23.18
11926;BMP180;6022;48.768;18.608;2023-05-07T12:06:53;98511.88;;;23.11
11926;BMP180;6022;48.768;18.608;2023-05-07T12:09:23;98513.41;;;22.97
11926;BMP180;6022;48.768;18.608;2023-05-07T12:11:52;98512.41;;;23.28
11926;BMP180;6022;48.768;18.608;2023-05-07T12:14:28;98513.69;;;23.24
11926;BMP180;6022;48.768;18.608;2023-05-07T12:16:58;98509.34;;;23.03
11926;BMP180;6022;48.768;18.608;2023-05-07T12:19:30;98517.97;;;22.95
11926;BMP180;6022;48.768;18.608;2023-05-07T12:21:59;98508.94;;;22.83
11926;BMP180;6022;48.768;18.608;2023-05-07T12:24:30;98507.22;;;23.28
11926;BMP180;6022;48.768;18.608;2023-05-07T12:27:09;98513.41;;;23.42
11926;BMP180;6022;48.768;18.608;2023-05-07T12:29:39;98511.78;;;22.96
11926;BMP180;6022;48.768;18.608;2023-05-07T12:32:19;98519.09;;;22.55
11926;BMP180;6022;48.768;18.608;2023-05-07T12:34:58;98520.47;;;22.43
11926;BMP180;6022;48.768;18.608;2023-05-07T12:37:27;98512.38;;;22.76
11926;BMP180;6022;48.768;18.608;2023-05-07T12:40:09;98519.25;;;22.61
11926;BMP180;6022;48.768;18.608;2023-05-07T12:42:39;98513.84;;;22.40
11926;BMP180;6022;48.768;18.608;2023-05-07T12:45:11;98512.78;;;22.95
11926;BMP180;6022;48.768;18.608;2023-05-07T12:47:47;98510.25;;;23.10
11926;BMP180;6022;48.768;18.608;2023-05-07T12:50:18;98501.13;;;22.31
11926;BMP180;6022;48.768;18.608;2023-05-07T12:52:49;98509.38;;;22.27
11926;BMP180;6022;48.768;18.608;2023-05-07T12:55:17;98504.13;;;21.73
11926;BMP180;6022;48.768;18.608;2023-05-07T12:57:50;98505.41;;;20.98
11926;BMP180;6022;48.768;18.608;2023-05-07T13:00:37;98505.59;;;21.12
11926;BMP180;6022;48.768;18.608;2023-05-07T13:03:06;98509.94;;;21.04
11926;BMP180;6022;48.768;18.608;2023-05-07T13:05:35;98511.19;;;21.00
11926;BMP180;6022;48.768;18.608;2023-05-07T13:08:04;98523.94;;;20.93
11926;BMP180;6022;48.768;18.608;2023-05-07T13:10:33;98516.56;;;20.57
11926;BMP180;6022;48.768;18.608;2023-05-07T13:13:02;98515.97;;;20.30
11926;BMP180;6022;48.768;18.608;2023-05-07T13:15:32;98509.56;;;20.01
11926;BMP180;6022;48.768;18.608;2023-05-07T13:18:02;98515.28;;;20.20
11926;BMP180;6022;48.768;18.608;2023-05-07T13:20:30;98520.25;;;20.14
11926;BMP180;6022;48.768;18.608;2023-05-07T13:23:01;98501.22;;;19.82
11926;BMP180;6022;48.768;18.608;2023-05-07T13:25:35;98499.06;;;20.03
11926;BMP180;6022;48.768;18.608;2023-05-07T13:28:07;98495.16;;;19.91
11926;BMP180;6022;48.768;18.608;2023-05-07T13:30:38;98497.56;;;19.84
11926;BMP180;6022;48.768;18.608;2023-05-07T13:33:31;98498.38;;;20.18
11926;BMP180;6022;48.768;18.608;2023-05-07T13:36:02;98497.47;;;20.02
11926;BMP180;6022;48.768;18.608;2023-05-07T13:38:35;98497.63;;;19.58
11926;BMP180;6022;48.768;18.608;2023-05-07T13:41:15;98500.72;;;19.78
11926;BMP180;6022;48.768;18.608;2023-05-07T13:43:50;98498.91;;;19.96
11926;BMP180;6022;48.768;18.608;2023-05-07T13:46:19;98497.47;;;19.34
11926;BMP180;6022;48.768;18.608;2023-05-07T13:49:01;98507.88;;;19.50
11926;BMP180;6022;48.768;18.608;2023-05-07T13:51:32;98506.06;;;19.60
11926;BMP180;6022;48.768;18.608;2023-05-07T13:54:03;98497.63;;;19.32
11926;BMP180;6022;48.768;18.608;2023-05-07T13:56:34;98510.38;;;19.17
11926;BMP180;6022;48.768;18.608;2023-05-07T13:59:02;98509.31;;;18.92
11926;BMP180;6022;48.768;18.608;2023-05-07T14:01:33;98503.41;;;18.83
11926;BMP180;6022;48.768;18.608;2023-05-07T14:04:02;98511.63;;;18.69
11926;BMP180;6022;48.768;18.608;2023-05-07T14:06:30;98512.19;;;18.63
11926;BMP180;6022;48.768;18.608;2023-05-07T14:08:59;98510.75;;;18.60
11926;BMP180;6022;48.768;18.608;2023-05-07T14:11:28;98513.56;;;18.57
11926;BMP180;6022;48.768;18.608;2023-05-07T14:13:58;98518.19;;;18.54
11926;BMP180;6022;48.768;18.608;2023-05-07T14:16:28;98515.72;;;18.62
11926;BMP180;6022;48.768;18.608;2023-05-07T14:18:57;98517.81;;;18.49
11926;BMP180;6022;48.768;18.608;2023-05-07T14:21:26;98521.44;;;18.73
11926;BMP180;6022;48.768;18.608;2023-05-07T14:23:54;98538.25;;;18.94
11926;BMP180;6022;48.768;18.608;2023-05-07T14:26:23;98526.50;;;18.65
11926;BMP180;6022;48.768;18.608;2023-05-07T14:28:51;98532.63;;;18.64
11926;BMP180;6022;48.768;18.608;2023-05-07T14:31:20;98532.97;;;18.69
11926;BMP180;6022;48.768;18.608;2023-05-07T14:33:49;98538.13;;;18.43
11926;BMP180;6022;48.768;18.608;2023-05-07T14:36:20;98532.94;;;18.52
11926;BMP180;6022;48.768;18.608;2023-05-07T14:38:53;98531.44;;;18.59
11926;BMP180;6022;48.768;18.608;2023-05-07T14:41:22;98533.41;;;18.65
11926;BMP180;6022;48.768;18.608;2023-05-07T14:43:56;98533.81;;;18.70
11926;BMP180;6022;48.768;18.608;2023-05-07T14:46:26;98535.78;;;18.76
11926;BMP180;6022;48.768;18.608;2023-05-07T14:48:56;98538.09;;;18.52
11926;BMP180;6022;48.768;18.608;2023-05-07T14:51:24;98538.06;;;18.25
11926;BMP180;6022;48.768;18.608;2023-05-07T14:53:53;98539.19;;;18.23
11926;BMP180;6022;48.768;18.608;2023-05-07T14:56:21;98547.41;;;18.17
11926;BMP180;6022;48.768;18.608;2023-05-07T14:58:50;98546.22;;;18.12
11926;BMP180;6022;48.768;18.608;2023-05-07T15:01:20;98539.97;;;17.78
11926;BMP180;6022;48.768;18.608;2023-05-07T15:03:48;98528.69;;;17.98